Date,TemperatureHighF,TemperatureAvgF,TemperatureLowF,DewpointHighF,DewpointAvgF,DewpointLowF,HumidityHigh,HumidityAvg,HumidityLow,PressureMaxIn,PressureMinIn,WindSpeedMaxMPH,WindSpeedAvgMPH,GustSpeedMaxMPH,PrecipitationSumIn
2013-3-1,53.6,41.5,33.7,38.0,31.4,-99.9,91,73,54,30.76,30.67,17,-6,20,0.00
2013-3-2,54.1,43.4,35.4,38.0,33.3,30.0,87,69,42,30.68,30.23,21,6,27,0.07
2013-3-3,41.9,35.1,27.8,38.0,23.2,10.0,95,65,37,30.46,30.10,35,13,45,0.01
2013-3-4,36.7,28.6,21.6,24.0,16.1,8.0,93,63,35,30.72,30.47,20,6,28,0.01
2013-3-5,39.4,29.8,18.8,20.0,16.6,13.0,80,60,41,30.59,30.30,12,4,18,0.00
2013-3-6,43.3,33.5,27.5,34.0,27.8,20.0,95,80,59,30.30,30.02,26,6,28,0.03
2013-3-7,44.1,34.2,29.3,32.0,20.7,-99.9,95,68,40,30.41,30.18,19,-38,20,0.01
2013-3-8,45.0,29.5,22.8,24.0,11.0,-99.9,86,61,29,30.44,30.28,21,-77,26,0.00
2013-3-9,45.3,35.2,25.7,24.0,21.8,20.0,80,60,40,30.77,30.44,19,7,25,0.00
2013-3-10,48.5,36.6,26.7,31.0,23.0,19.0,79,60,32,30.80,30.52,22,8,30,0.00
2013-3-11,46.1,36.2,33.2,31.0,12.6,-99.9,90,50,25,30.58,30.51,24,-68,31,0.00
2013-3-12,50.6,38.6,29.8,35.0,25.3,-99.9,85,61,47,30.58,30.43,15,-6,20,0.00
2013-3-13,58.8,49.1,39.9,36.0,31.8,23.0,81,55,28,30.51,30.43,18,4,18,0.00
2013-3-14,62.1,46.8,36.6,36.0,24.4,-99.9,75,49,32,30.48,30.23,17,-49,21,0.00
2013-3-15,54.3,49.2,43.6,35.0,32.2,29.0,62,53,41,30.34,30.27,22,13,29,0.00
2013-3-16,47.5,41.7,36.2,34.0,30.8,28.0,86,66,47,30.33,29.99,24,7,27,0.01
2013-3-17,38.7,32.3,26.9,34.0,22.8,15.0,94,70,40,30.39,29.94,28,9,43,0.01
2013-3-18,37.4,30.4,26.7,27.0,21.3,11.0,94,71,34,30.49,30.34,22,8,28,0.00
2013-3-19,41.8,31.0,22.2,28.0,23.6,20.0,94,77,45,30.71,30.40,7,2,9,0.04
2013-3-20,55.5,38.7,28.6,39.0,29.5,21.0,87,70,46,30.39,29.83,40,10,52,0.08
2013-3-21,36.3,31.0,25.8,30.0,21.6,15.0,92,69,51,30.38,30.07,18,8,32,0.00
2013-3-22,30.7,26.5,24.0,24.0,21.5,18.0,93,81,64,30.61,30.38,20,5,25,0.01
2013-3-23,32.9,25.3,19.8,22.0,19.6,17.0,93,80,55,30.76,30.61,20,6,25,0.00
2013-3-24,38.7,25.3,17.9,20.0,6.9,-99.9,85,59,30,30.81,30.62,10,-61,13,0.00
2013-3-25,45.6,32.0,19.4,23.0,16.6,13.0,79,56,33,30.64,30.39,12,4,14,0.00
2013-3-26,53.8,40.6,32.3,28.0,22.5,-99.9,75,53,33,30.39,30.24,13,-17,15,0.00
2013-3-27,54.0,41.2,31.0,35.0,25.0,-99.9,82,59,38,30.35,30.26,22,-26,26,0.00
2013-3-28,53.7,44.2,34.6,39.0,34.1,-99.9,90,71,52,30.40,30.30,15,-7,20,0.00
2013-3-29,53.6,44.9,37.3,41.0,35.9,31.0,93,73,45,30.52,30.41,16,4,20,0.00
2013-3-30,58.1,47.4,35.5,37.0,31.2,26.0,86,57,31,30.61,30.42,16,6,21,0.00
2013-3-31,62.9,47.2,33.7,33.0,28.5,-99.9,79,53,29,30.45,30.23,17,-6,22,0.00